Time;durP1;ratioP1;P1;durP2;ratioP2;P2;SDS_P1;SDS_P2;PMS_P1;PMS_P2;Temp;Humidity;BMP_temperature;BMP_pressure;BME280_temperature;BME280_humidity;BME280_pressure;Samples;Min_cycle;Max_cycle;Signal;HPM_P1;HPM_P2
2024/02/19 00:00:18;;;;;;;;;5.00;4.00;;;;;;;;5066366;27;45590;-70
2024/02/19 00:02:43;;;;;;;;;7.50;6.25;;;;;;;;5077805;27;45449;-70
2024/02/19 00:05:09;;;;;;;;;6.50;4.25;;;;;;;;5077464;27;45315;-70
2024/02/19 00:07:34;;;;;;;;;8.50;7.25;;;;;;;;5078876;27;45598;-70
2024/02/19 00:09:59;;;;;;;;;5.00;5.00;;;;;;;;5082134;27;45397;-70
2024/02/19 00:12:24;;;;;;;;;6.25;4.50;;;;;;;;5078981;27;45499;-70
2024/02/19 00:14:49;;;;;;;;;6.00;5.67;;;;;;;;5070359;27;45450;-70
2024/02/19 00:17:15;;;;;;;;;5.00;4.00;;;;;;;;5076026;27;45406;-70
2024/02/19 00:19:40;;;;;;;;;6.67;5.33;;;;;;;;5077548;27;46082;-70
2024/02/19 00:22:07;;;;;;;;;4.00;4.00;;;;;;;;5077986;27;45212;-70
2024/02/19 00:24:32;;;;;;;;;7.25;6.25;;;;;;;;5074043;27;45371;-70
2024/02/19 00:26:57;;;;;;;;;5.33;4.67;;;;;;;;5078510;27;45290;-70
2024/02/19 00:29:22;;;;;;;;;5.00;5.00;;;;;;;;5074566;27;45286;-70
2024/02/19 00:31:47;;;;;;;;;9.00;6.25;;;;;;;;5077189;27;45285;-70
2024/02/19 00:34:13;;;;;;;;;7.00;6.00;;;;;;;;5077766;27;45583;-70
2024/02/19 00:36:38;;;;;;;;;6.25;6.25;;;;;;;;5081288;27;45397;-70
2024/02/19 00:39:03;;;;;;;;;6.00;6.00;;;;;;;;5078131;27;45455;-70
2024/02/19 00:41:28;;;;;;;;;8.00;7.67;;;;;;;;5080040;27;45346;-70
2024/02/19 00:43:55;;;;;;;;;6.33;6.00;;;;;;;;5080821;27;45578;-70
2024/02/19 00:46:20;;;;;;;;;6.75;5.00;;;;;;;;5081933;27;45512;-70
2024/02/19 00:48:45;;;;;;;;;5.33;4.00;;;;;;;;5078577;27;47187;-70
2024/02/19 00:51:10;;;;;;;;;5.75;5.75;;;;;;;;5069975;27;45575;-70
2024/02/19 00:53:39;;;;;;;;;9.00;7.00;;;;;;;;5075847;27;45555;-70
2024/02/19 00:56:04;;;;;;;;;7.25;5.00;;;;;;;;5071257;27;45538;-70
2024/02/19 00:58:30;;;;;;;;;5.25;4.50;;;;;;;;5075551;27;45646;-70
2024/02/19 01:00:55;;;;;;;;;5.00;4.00;;;;;;;;5082675;27;45431;-70
2024/02/19 01:03:20;;;;;;;;;6.00;4.25;;;;;;;;5086801;27;45332;-70
2024/02/19 01:05:45;;;;;;;;;6.00;4.67;;;;;;;;5082329;27;45513;-70
2024/02/19 01:08:11;;;;;;;;;7.33;5.00;;;;;;;;5093932;27;45492;-71
2024/02/19 01:10:36;;;;;;;;;4.00;3.00;;;;;;;;5079004;27;45304;-70
2024/02/19 01:13:01;;;;;;;;;5.00;5.00;;;;;;;;5081305;27;45387;-71
2024/02/19 01:15:27;;;;;;;;;3.25;2.25;;;;;;;;5093565;27;45452;-70
2024/02/19 01:17:52;;;;;;;;;5.00;5.00;;;;;;;;5081141;27;48033;-70
2024/02/19 01:20:20;;;;;;;;;4.33;4.00;;;;;;;;5093755;27;45405;-70
2024/02/19 01:22:45;;;;;;;;;4.00;4.00;;;;;;;;5081198;27;45421;-70
2024/02/19 01:25:10;;;;;;;;;5.33;5.33;;;;;;;;5089897;27;45495;-70
2024/02/19 01:27:35;;;;;;;;;7.00;5.00;;;;;;;;5074960;27;45548;-70
2024/02/19 01:30:01;;;;;;;;;6.00;6.00;;;;;;;;5080168;27;45568;-70
2024/02/19 01:32:26;;;;;;;;;5.50;5.00;;;;;;;;5079813;27;45356;-70
2024/02/19 01:34:52;;;;;;;;;7.00;5.00;;;;;;;;5080674;27;45361;-70
2024/02/19 01:37:17;;;;;;;;;5.00;5.00;;;;;;;;5080828;27;45556;-70
2024/02/19 01:39:43;;;;;;;;;4.00;3.67;;;;;;;;5083149;27;45360;-71
2024/02/19 01:42:08;;;;;;;;;6.25;5.00;;;;;;;;5079468;27;45340;-70
2024/02/19 01:44:36;;;;;;;;;3.33;1.33;;;;;;;;5078634;27;45390;-70
2024/02/19 01:47:01;;;;;;;;;5.25;4.75;;;;;;;;5076284;27;45416;-70
2024/02/19 01:49:27;;;;;;;;;4.25;4.00;;;;;;;;5079466;27;45405;-70
2024/02/19 01:51:52;;;;;;;;;4.25;3.25;;;;;;;;5080982;27;45386;-71
2024/02/19 01:54:18;;;;;;;;;9.00;5.50;;;;;;;;5080147;27;45286;-70
2024/02/19 01:56:43;;;;;;;;;3.25;3.25;;;;;;;;5078638;27;45724;-70
2024/02/19 01:59:09;;;;;;;;;4.00;4.00;;;;;;;;5088670;27;45305;-70
2024/02/19 02:01:36;;;;;;;;;4.00;4.00;;;;;;;;5080791;27;45235;-70
2024/02/19 02:04:01;;;;;;;;;7.00;5.00;;;;;;;;5080608;27;45397;-70
2024/02/19 02:06:27;;;;;;;;;5.00;4.00;;;;;;;;5077776;27;46081;-70
2024/02/19 02:08:52;;;;;;;;;5.33;5.33;;;;;;;;5080339;27;45436;-70
2024/02/19 02:11:17;;;;;;;;;5.33;4.00;;;;;;;;5078451;27;45505;-70
2024/02/19 02:13:42;;;;;;;;;5.75;5.75;;;;;;;;5075129;27;45307;-70
2024/02/19 02:16:07;;;;;;;;;6.00;5.67;;;;;;;;5069320;27;45578;-70
2024/02/19 02:18:33;;;;;;;;;5.00;5.00;;;;;;;;5078350;27;45417;-70
2024/02/19 02:20:58;;;;;;;;;7.50;5.00;;;;;;;;5073777;27;45311;-70
2024/02/19 02:23:24;;;;;;;;;5.00;5.00;;;;;;;;5078712;27;45307;-70
2024/02/19 02:25:49;;;;;;;;;5.50;4.25;;;;;;;;5079052;27;47015;-70
2024/02/19 02:28:14;;;;;;;;;7.00;5.00;;;;;;;;5077018;27;45697;-70
2024/02/19 02:30:40;;;;;;;;;5.33;5.33;;;;;;;;5079352;27;45500;-70
2024/02/19 02:33:05;;;;;;;;;9.67;6.33;;;;;;;;5079442;27;45536;-70
2024/02/19 02:35:30;;;;;;;;;5.00;5.00;;;;;;;;5078634;27;45523;-70
2024/02/19 02:37:55;;;;;;;;;5.33;5.33;;;;;;;;5079035;27;45346;-70
2024/02/19 02:40:20;;;;;;;;;7.33;5.00;;;;;;;;5079982;27;46017;-70
2024/02/19 02:42:45;;;;;;;;;7.67;5.00;;;;;;;;5079158;27;45599;-70
2024/02/19 02:45:11;;;;;;;;;7.00;6.00;;;;;;;;5069333;27;45547;-70
2024/02/19 02:47:36;;;;;;;;;8.00;5.33;;;;;;;;5079896;28;45441;-70
2024/02/19 02:50:01;;;;;;;;;6.25;6.00;;;;;;;;5079204;27;45281;-70
2024/02/19 02:52:26;;;;;;;;;5.00;5.00;;;;;;;;5078230;27;45647;-70
2024/02/19 02:54:51;;;;;;;;;6.00;5.00;;;;;;;;5068036;28;46143;-70
2024/02/19 02:57:17;;;;;;;;;9.25;6.00;;;;;;;;5075264;27;45311;-70
2024/02/19 02:59:42;;;;;;;;;7.33;6.33;;;;;;;;5081167;27;45305;-71
2024/02/19 03:02:07;;;;;;;;;6.33;5.33;;;;;;;;5073101;27;45517;-70
2024/02/19 03:04:32;;;;;;;;;9.33;7.67;;;;;;;;5088053;27;45477;-70
2024/02/19 03:06:57;;;;;;;;;13.00;8.67;;;;;;;;5080667;27;45468;-71
2024/02/19 03:09:23;;;;;;;;;6.67;5.00;;;;;;;;5087703;27;45231;-70
2024/02/19 03:11:48;;;;;;;;;5.50;5.50;;;;;;;;5079537;27;45274;-70
2024/02/19 03:14:14;;;;;;;;;6.00;6.00;;;;;;;;5082930;27;46685;-70
2024/02/19 03:16:39;;;;;;;;;7.75;5.00;;;;;;;;5079477;27;45302;-70
2024/02/19 03:19:07;;;;;;;;;7.75;5.25;;;;;;;;5079753;27;45272;-70
2024/02/19 03:21:32;;;;;;;;;4.75;4.75;;;;;;;;5077990;27;45417;-70
2024/02/19 03:23:57;;;;;;;;;5.33;5.00;;;;;;;;5079415;27;46535;-70
2024/02/19 03:26:24;;;;;;;;;6.00;4.00;;;;;;;;5070315;27;45438;-70
2024/02/19 03:28:49;;;;;;;;;3.50;3.50;;;;;;;;5074939;27;45433;-70
2024/02/19 03:31:14;;;;;;;;;6.67;6.00;;;;;;;;5067171;27;45608;-70
2024/02/19 03:33:39;;;;;;;;;8.33;7.00;;;;;;;;5078755;27;46145;-70
2024/02/19 03:36:06;;;;;;;;;6.67;6.00;;;;;;;;5078478;27;45319;-71
2024/02/19 03:38:31;;;;;;;;;6.50;5.50;;;;;;;;5076158;27;45552;-70
2024/02/19 03:40:56;;;;;;;;;9.00;7.67;;;;;;;;5077788;28;45314;-70
2024/02/19 03:43:21;;;;;;;;;12.00;7.33;;;;;;;;5078459;27;45733;-70
2024/02/19 03:45:46;;;;;;;;;8.00;6.33;;;;;;;;5078674;27;45403;-70
2024/02/19 03:48:12;;;;;;;;;7.00;6.00;;;;;;;;5078286;27;45833;-70
2024/02/19 03:50:37;;;;;;;;;8.00;7.33;;;;;;;;5075755;27;45614;-71
2024/02/19 03:53:02;;;;;;;;;11.67;7.67;;;;;;;;5078078;27;45378;-70
2024/02/19 03:55:27;;;;;;;;;9.75;6.00;;;;;;;;5078249;27;45228;-71
2024/02/19 03:57:52;;;;;;;;;7.00;7.00;;;;;;;;5074853;27;45702;-71
2024/02/19 04:00:18;;;;;;;;;9.00;7.33;;;;;;;;5063939;27;45302;-70
2024/02/19 04:02:43;;;;;;;;;6.00;6.00;;;;;;;;5077541;27;45939;-71
2024/02/19 04:05:08;;;;;;;;;11.00;7.67;;;;;;;;5076266;27;45405;-70
2024/02/19 04:07:33;;;;;;;;;7.00;5.33;;;;;;;;5077885;27;45615;-71
2024/02/19 04:09:58;;;;;;;;;9.33;8.00;;;;;;;;5068346;27;45474;-70
2024/02/19 04:12:23;;;;;;;;;10.00;8.00;;;;;;;;5072619;27;46477;-70
2024/02/19 04:14:49;;;;;;;;;8.33;6.00;;;;;;;;5070883;27;45478;-71
2024/02/19 04:17:14;;;;;;;;;10.67;10.00;;;;;;;;5080946;27;45414;-71
2024/02/19 04:19:40;;;;;;;;;6.33;5.00;;;;;;;;5081346;27;45333;-70
2024/02/19 04:22:05;;;;;;;;;7.75;7.00;;;;;;;;5082239;27;45459;-71
2024/02/19 04:24:30;;;;;;;;;10.33;10.00;;;;;;;;5079075;27;45333;-71
2024/02/19 04:26:55;;;;;;;;;10.33;7.00;;;;;;;;5079067;27;45732;-70
2024/02/19 04:29:20;;;;;;;;;10.00;6.67;;;;;;;;5081033;27;45760;-70
2024/02/19 04:31:45;;;;;;;;;9.00;5.33;;;;;;;;5081350;27;46043;-70
2024/02/19 04:34:11;;;;;;;;;9.00;9.00;;;;;;;;5079333;27;45509;-71
2024/02/19 04:36:36;;;;;;;;;9.67;7.33;;;;;;;;5071439;27;45678;-71
2024/02/19 04:39:01;;;;;;;;;8.67;7.67;;;;;;;;5079947;27;45710;-70
2024/02/19 04:41:26;;;;;;;;;9.67;9.00;;;;;;;;5080817;27;45540;-70
2024/02/19 04:43:51;;;;;;;;;11.00;8.33;;;;;;;;5081365;27;45502;-70
2024/02/19 04:46:16;;;;;;;;;12.33;9.33;;;;;;;;5080434;27;45762;-70
2024/02/19 04:48:42;;;;;;;;;11.67;8.33;;;;;;;;5080878;27;45351;-70
2024/02/19 04:51:07;;;;;;;;;8.33;8.33;;;;;;;;5077103;27;46232;-70
2024/02/19 04:53:32;;;;;;;;;10.00;8.00;;;;;;;;5079777;27;45429;-70
2024/02/19 04:55:57;;;;;;;;;9.00;7.25;;;;;;;;5075823;27;46775;-70
2024/02/19 04:58:23;;;;;;;;;9.33;9.00;;;;;;;;5079592;27;45622;-71
2024/02/19 05:00:48;;;;;;;;;10.75;8.00;;;;;;;;5079610;27;45437;-71
2024/02/19 05:03:14;;;;;;;;;12.50;9.75;;;;;;;;5068597;27;45505;-71
2024/02/19 05:05:39;;;;;;;;;14.75;7.75;;;;;;;;5079196;27;45502;-71
2024/02/19 05:08:04;;;;;;;;;6.67;2.67;;;;;;;;5087735;27;45519;-71
2024/02/19 05:10:29;;;;;;;;;9.00;7.50;;;;;;;;5079294;27;45358;-71
2024/02/19 05:12:55;;;;;;;;;9.75;8.75;;;;;;;;5074111;27;45345;-71
2024/02/19 05:15:20;;;;;;;;;12.67;9.67;;;;;;;;5081297;27;45535;-71
2024/02/19 05:17:45;;;;;;;;;11.00;9.33;;;;;;;;5081584;27;45611;-70
2024/02/19 05:20:10;;;;;;;;;5.75;5.75;;;;;;;;5081027;27;45347;-71
2024/02/19 05:22:36;;;;;;;;;8.00;7.00;;;;;;;;5080123;27;45396;-71
2024/02/19 05:25:02;;;;;;;;;6.00;5.50;;;;;;;;5079157;27;45361;-70
2024/02/19 05:27:27;;;;;;;;;10.75;8.00;;;;;;;;5080108;27;45591;-70
2024/02/19 05:29:52;;;;;;;;;7.75;6.00;;;;;;;;5080679;28;46305;-70
2024/02/19 05:32:17;;;;;;;;;10.00;7.33;;;;;;;;5078641;27;45301;-70
2024/02/19 05:34:42;;;;;;;;;12.33;8.33;;;;;;;;5079633;27;45508;-71
2024/02/19 05:37:08;;;;;;;;;11.00;9.00;;;;;;;;5081173;27;45380;-71
2024/02/19 05:39:33;;;;;;;;;14.33;9.67;;;;;;;;5079919;27;45503;-71
2024/02/19 05:41:58;;;;;;;;;9.00;6.67;;;;;;;;5069183;27;45296;-70
2024/02/19 05:44:23;;;;;;;;;7.33;7.33;;;;;;;;5078025;27;45334;-70
2024/02/19 05:46:48;;;;;;;;;4.67;4.67;;;;;;;;5080236;27;45328;-71
2024/02/19 05:49:13;;;;;;;;;9.00;9.00;;;;;;;;5078264;27;45473;-71
2024/02/19 05:51:41;;;;;;;;;10.00;10.00;;;;;;;;5085137;27;45485;-70
2024/02/19 05:54:07;;;;;;;;;9.00;8.25;;;;;;;;5077282;27;45473;-70
2024/02/19 05:56:32;;;;;;;;;8.25;7.00;;;;;;;;5070016;27;45390;-71
2024/02/19 05:58:57;;;;;;;;;8.00;7.00;;;;;;;;5072130;27;45534;-70
2024/02/19 06:01:23;;;;;;;;;7.33;7.33;;;;;;;;5079812;27;45423;-71
2024/02/19 06:03:48;;;;;;;;;9.00;9.00;;;;;;;;5079852;27;45523;-71
2024/02/19 06:06:13;;;;;;;;;8.00;6.33;;;;;;;;5075951;27;45584;-71
2024/02/19 06:08:38;;;;;;;;;8.33;7.00;;;;;;;;5079771;27;46250;-70
2024/02/19 06:11:04;;;;;;;;;7.00;7.00;;;;;;;;5078167;27;45366;-71
2024/02/19 06:13:29;;;;;;;;;7.00;5.00;;;;;;;;5074029;27;45670;-71
2024/02/19 06:15:54;;;;;;;;;9.00;8.00;;;;;;;;5070245;27;45394;-71
2024/02/19 06:18:19;;;;;;;;;12.33;7.00;;;;;;;;5080306;27;45576;-71
2024/02/19 06:20:44;;;;;;;;;9.50;6.25;;;;;;;;5070881;27;45468;-71
2024/02/19 06:23:09;;;;;;;;;9.33;7.00;;;;;;;;5076923;27;45563;-70
2024/02/19 06:25:35;;;;;;;;;6.33;6.33;;;;;;;;5077654;27;45461;-71
2024/02/19 06:28:02;;;;;;;;;10.00;8.00;;;;;;;;5077083;27;47455;-70
2024/02/19 06:30:27;;;;;;;;;11.00;7.00;;;;;;;;5077868;27;45316;-70
2024/02/19 06:32:52;;;;;;;;;7.33;7.33;;;;;;;;5075808;27;45384;-70
2024/02/19 06:35:17;;;;;;;;;8.00;8.00;;;;;;;;5076929;27;46705;-67
2024/02/19 06:37:42;;;;;;;;;8.00;8.00;;;;;;;;5079760;27;47191;-69
2024/02/19 06:40:08;;;;;;;;;10.25;8.25;;;;;;;;5078597;28;45293;-68
2024/02/19 06:42:33;;;;;;;;;11.25;8.75;;;;;;;;5079551;27;45268;-67
2024/02/19 06:44:58;;;;;;;;;9.00;9.00;;;;;;;;5078521;27;45640;-66
2024/02/19 06:47:23;;;;;;;;;9.67;9.67;;;;;;;;5076122;27;48431;-68
2024/02/19 06:49:49;;;;;;;;;12.33;11.67;;;;;;;;5085412;27;45579;-67
2024/02/19 06:52:14;;;;;;;;;9.00;8.67;;;;;;;;5099627;27;45384;-68
2024/02/19 06:54:39;;;;;;;;;8.67;7.00;;;;;;;;5073678;27;45371;-68
2024/02/19 06:57:04;;;;;;;;;13.50;11.25;;;;;;;;5077820;27;47307;-68
2024/02/19 06:59:32;;;;;;;;;10.75;10.50;;;;;;;;5077827;27;45329;-68
2024/02/19 07:01:57;;;;;;;;;12.75;9.00;;;;;;;;5080405;27;45465;-68
2024/02/19 07:04:23;;;;;;;;;14.50;10.75;;;;;;;;5067122;27;45448;-69
2024/02/19 07:06:48;;;;;;;;;10.50;9.25;;;;;;;;5088502;27;47082;-68
2024/02/19 07:09:14;;;;;;;;;8.33;7.33;;;;;;;;5080452;27;45333;-68
2024/02/19 07:11:40;;;;;;;;;9.50;8.50;;;;;;;;5087475;27;45602;-68
2024/02/19 07:14:05;;;;;;;;;14.25;8.25;;;;;;;;5072249;27;45474;-68
2024/02/19 07:16:30;;;;;;;;;8.50;7.75;;;;;;;;5063263;27;45962;-68
2024/02/19 07:18:55;;;;;;;;;11.67;9.33;;;;;;;;5076335;27;45462;-69
2024/02/19 07:21:21;;;;;;;;;8.50;8.50;;;;;;;;5082550;27;45287;-68
2024/02/19 07:23:46;;;;;;;;;10.50;10.50;;;;;;;;5085661;27;45366;-68
2024/02/19 07:26:11;;;;;;;;;10.00;10.00;;;;;;;;5090615;27;45371;-68
2024/02/19 07:28:36;;;;;;;;;10.00;7.25;;;;;;;;5081830;27;46277;-68
2024/02/19 07:31:02;;;;;;;;;13.00;8.00;;;;;;;;5079755;27;45724;-70
2024/02/19 07:33:30;;;;;;;;;12.75;9.00;;;;;;;;5081777;27;45328;-70
2024/02/19 07:35:55;;;;;;;;;8.50;8.00;;;;;;;;5086779;27;45432;-71
2024/02/19 07:38:20;;;;;;;;;9.67;8.67;;;;;;;;5071444;27;45338;-71
2024/02/19 07:40:46;;;;;;;;;10.67;6.00;;;;;;;;5061842;27;45765;-70
2024/02/19 07:43:12;;;;;;;;;10.00;10.00;;;;;;;;5082681;27;45585;-70
2024/02/19 07:45:37;;;;;;;;;11.25;8.75;;;;;;;;5077638;27;47337;-70
2024/02/19 07:48:06;;;;;;;;;8.00;8.00;;;;;;;;5083358;27;45581;-70
2024/02/19 07:50:32;;;;;;;;;11.50;10.00;;;;;;;;5078908;27;45447;-70
2024/02/19 07:52:58;;;;;;;;;9.25;7.25;;;;;;;;5078734;27;45330;-70
2024/02/19 07:55:23;;;;;;;;;9.50;9.50;;;;;;;;5078651;27;45287;-71
2024/02/19 07:57:48;;;;;;;;;14.33;10.00;;;;;;;;5077618;27;45414;-71
2024/02/19 08:00:13;;;;;;;;;13.67;6.00;;;;;;;;5078661;27;45342;-71
2024/02/19 08:02:39;;;;;;;;;7.75;7.75;;;;;;;;5077074;28;45342;-72
2024/02/19 08:05:04;;;;;;;;;10.33;8.33;;;;;;;;5076453;27;46555;-72
2024/02/19 08:07:29;;;;;;;;;3.00;2.00;;;;;;;;5077536;27;45428;-72
2024/02/19 08:09:54;;;;;;;;;13.33;9.00;;;;;;;;5078758;27;45358;-72
2024/02/19 08:12:20;;;;;;;;;12.67;8.00;;;;;;;;5069877;27;45753;-71
2024/02/19 08:14:45;;;;;;;;;4.33;4.33;;;;;;;;5075505;27;47202;-72
2024/02/19 08:17:10;;;;;;;;;7.75;6.50;;;;;;;;5068817;27;45723;-72
2024/02/19 08:19:36;;;;;;;;;6.33;6.33;;;;;;;;5082783;27;45406;-72
2024/02/19 08:22:01;;;;;;;;;9.33;8.00;;;;;;;;5078443;27;45457;-71
2024/02/19 08:24:27;;;;;;;;;5.75;5.75;;;;;;;;5078083;27;45988;-71
2024/02/19 08:26:52;;;;;;;;;6.33;6.00;;;;;;;;5075419;27;45385;-72
2024/02/19 08:29:17;;;;;;;;;8.00;6.33;;;;;;;;5067535;27;45422;-69
2024/02/19 08:31:43;;;;;;;;;7.00;7.00;;;;;;;;5078477;27;45684;-72
2024/02/19 08:34:08;;;;;;;;;7.25;5.00;;;;;;;;5077111;27;47019;-72
2024/02/19 08:36:33;;;;;;;;;4.50;3.50;;;;;;;;5078225;27;45466;-71
2024/02/19 08:38:59;;;;;;;;;5.00;4.00;;;;;;;;5078312;27;45376;-69
2024/02/19 08:41:24;;;;;;;;;5.00;3.33;;;;;;;;5077381;27;45291;-70
2024/02/19 08:43:49;;;;;;;;;6.75;5.50;;;;;;;;5077627;28;46294;-72
2024/02/19 08:46:15;;;;;;;;;4.25;4.25;;;;;;;;5076652;27;45393;-75
2024/02/19 08:48:40;;;;;;;;;6.50;4.25;;;;;;;;5074107;27;45488;-71
2024/02/19 08:51:06;;;;;;;;;4.00;3.00;;;;;;;;5077345;27;45344;-66
2024/02/19 08:53:31;;;;;;;;;6.25;3.75;;;;;;;;5077619;27;45584;-66
2024/02/19 08:55:56;;;;;;;;;4.00;3.00;;;;;;;;5079469;27;45512;-69
2024/02/19 08:58:22;;;;;;;;;3.67;3.00;;;;;;;;5079826;27;45595;-69
2024/02/19 09:00:47;;;;;;;;;3.75;3.25;;;;;;;;5079388;27;45504;-69
2024/02/19 09:03:12;;;;;;;;;3.33;2.67;;;;;;;;5081204;27;45520;-66
2024/02/19 09:05:37;;;;;;;;;4.00;3.00;;;;;;;;5079751;27;45337;-68
2024/02/19 09:08:03;;;;;;;;;4.00;2.75;;;;;;;;5081245;27;45373;-69
2024/02/19 09:10:28;;;;;;;;;3.00;3.00;;;;;;;;5079883;27;45496;-68
2024/02/19 09:12:54;;;;;;;;;4.00;3.00;;;;;;;;5073184;28;46920;-69
2024/02/19 09:15:19;;;;;;;;;4.00;4.00;;;;;;;;5080723;27;45238;-69
2024/02/19 09:17:44;;;;;;;;;7.50;5.25;;;;;;;;5084635;27;45537;-68
2024/02/19 09:20:10;;;;;;;;;3.33;3.33;;;;;;;;5079148;27;45887;-69
2024/02/19 09:22:35;;;;;;;;;7.00;4.00;;;;;;;;5079682;27;46187;-69
2024/02/19 09:25:00;;;;;;;;;3.00;3.00;;;;;;;;5081015;27;45419;-69
2024/02/19 09:27:25;;;;;;;;;5.00;4.00;;;;;;;;5078123;27;45367;-68
2024/02/19 09:29:50;;;;;;;;;4.33;4.33;;;;;;;;5080594;27;45231;-71
2024/02/19 09:32:16;;;;;;;;;3.00;3.00;;;;;;;;5079087;27;47523;-69
2024/02/19 09:34:41;;;;;;;;;3.00;3.00;;;;;;;;5080766;27;45530;-68
2024/02/19 09:37:06;;;;;;;;;3.25;2.00;;;;;;;;5080855;27;45616;-68
2024/02/19 09:39:31;;;;;;;;;3.33;2.00;;;;;;;;5082525;27;45462;-68
2024/02/19 09:41:57;;;;;;;;;3.67;3.67;;;;;;;;5081585;27;45408;-70
2024/02/19 09:44:22;;;;;;;;;2.75;2.50;;;;;;;;5080209;27;45365;-70
2024/02/19 09:46:48;;;;;;;;;2.33;2.00;;;;;;;;5080724;27;45303;-71
2024/02/19 09:49:14;;;;;;;;;2.75;2.75;;;;;;;;5080190;27;46002;-71
2024/02/19 09:51:46;;;;;;;;;3.00;2.00;;;;;;;;5080012;27;45472;-70
2024/02/19 09:54:11;;;;;;;;;3.00;1.50;;;;;;;;5086508;27;45387;-70
2024/02/19 09:56:37;;;;;;;;;2.50;2.25;;;;;;;;5082002;27;45432;-71
2024/02/19 09:59:03;;;;;;;;;1.00;1.00;;;;;;;;5079336;27;45789;-72
2024/02/19 10:01:28;;;;;;;;;3.50;2.00;;;;;;;;5080181;28;46317;-71
2024/02/19 10:03:56;;;;;;;;;3.33;2.67;;;;;;;;5077606;27;45480;-71
2024/02/19 10:06:29;;;;;;;;;1.00;1.00;;;;;;;;5077603;27;45486;-70
2024/02/19 10:08:54;;;;;;;;;1.00;1.00;;;;;;;;5069353;28;45455;-71
2024/02/19 10:11:19;;;;;;;;;3.67;2.00;;;;;;;;5078440;27;46485;-71
2024/02/19 10:13:44;;;;;;;;;1.00;1.00;;;;;;;;5080270;27;45472;-71
2024/02/19 10:16:10;;;;;;;;;2.00;2.00;;;;;;;;5079604;27;45795;-70
2024/02/19 10:18:36;;;;;;;;;1.50;1.50;;;;;;;;5080250;27;45529;-70
2024/02/19 10:21:02;;;;;;;;;1.00;1.00;;;;;;;;5079988;27;47470;-70
2024/02/19 10:23:27;;;;;;;;;0.75;0.75;;;;;;;;5080079;28;45604;-70
2024/02/19 10:25:53;;;;;;;;;2.75;1.75;;;;;;;;5079540;27;45371;-70
2024/02/19 10:28:21;;;;;;;;;1.00;1.00;;;;;;;;5078934;27;45295;-70
2024/02/19 10:30:46;;;;;;;;;1.50;1.50;;;;;;;;5079132;27;45396;-70
2024/02/19 10:33:12;;;;;;;;;2.00;1.00;;;;;;;;5080173;27;46048;-70
2024/02/19 10:35:37;;;;;;;;;0.33;0.00;;;;;;;;5086599;27;45431;-70
2024/02/19 10:38:02;;;;;;;;;3.00;2.00;;;;;;;;5080022;27;45418;-70
2024/02/19 10:40:28;;;;;;;;;1.00;1.00;;;;;;;;5077987;27;46935;-70
2024/02/19 10:42:53;;;;;;;;;2.00;0.00;;;;;;;;5079479;27;45438;-71
2024/02/19 10:45:22;;;;;;;;;3.50;1.00;;;;;;;;5079414;27;45447;-70
2024/02/19 10:47:48;;;;;;;;;0.75;0.75;;;;;;;;5079723;27;45366;-71
2024/02/19 10:50:14;;;;;;;;;0.00;0.00;;;;;;;;5078775;27;46035;-71
2024/02/19 10:52:41;;;;;;;;;1.00;1.00;;;;;;;;5078452;28;45574;-70
2024/02/19 10:55:13;;;;;;;;;2.00;2.00;;;;;;;;5079040;27;45463;-70
2024/02/19 10:57:54;;;;;;;;;2.25;2.25;;;;;;;;5085410;27;45530;-70
2024/02/19 11:00:25;;;;;;;;;4.00;2.00;;;;;;;;5077852;27;46825;-70
2024/02/19 11:03:02;;;;;;;;;4.75;3.00;;;;;;;;5080635;27;45640;-70
2024/02/19 11:05:27;;;;;;;;;2.00;2.00;;;;;;;;5083672;27;45388;-73
2024/02/19 11:07:52;;;;;;;;;1.00;1.00;;;;;;;;5078309;27;45303;-71
2024/02/19 11:10:18;;;;;;;;;3.00;3.00;;;;;;;;5077707;27;45671;-71
2024/02/19 11:12:43;;;;;;;;;1.00;1.00;;;;;;;;5086278;27;45658;-70
2024/02/19 11:15:14;;;;;;;;;2.00;2.00;;;;;;;;5066171;27;45429;-71
2024/02/19 11:17:39;;;;;;;;;2.50;2.50;;;;;;;;5077071;27;45679;-71
2024/02/19 11:20:04;;;;;;;;;2.00;2.00;;;;;;;;5075489;27;47165;-71
2024/02/19 11:22:30;;;;;;;;;3.00;3.00;;;;;;;;5079541;27;45312;-71
2024/02/19 11:24:57;;;;;;;;;4.00;2.25;;;;;;;;5078013;27;45326;-71
2024/02/19 11:27:22;;;;;;;;;2.00;2.00;;;;;;;;5076657;27;45780;-70
2024/02/19 11:29:53;;;;;;;;;2.75;1.50;;;;;;;;5078745;27;45487;-71
2024/02/19 11:32:19;;;;;;;;;1.50;1.50;;;;;;;;5079482;27;45330;-71
2024/02/19 11:34:44;;;;;;;;;2.00;1.00;;;;;;;;5079069;27;45376;-71
2024/02/19 11:37:11;;;;;;;;;2.00;2.00;;;;;;;;5078524;27;45593;-65
2024/02/19 11:39:37;;;;;;;;;1.50;1.50;;;;;;;;5077247;27;46074;-70
2024/02/19 11:42:04;;;;;;;;;1.00;1.00;;;;;;;;5082181;27;46673;-70
2024/02/19 11:44:29;;;;;;;;;1.00;1.00;;;;;;;;5075902;27;45649;-70
2024/02/19 11:46:56;;;;;;;;;1.50;0.00;;;;;;;;5077593;28;45627;-70
2024/02/19 11:49:22;;;;;;;;;0.00;0.00;;;;;;;;5078706;27;46349;-70
2024/02/19 11:51:47;;;;;;;;;0.00;0.00;;;;;;;;5079222;27;45569;-70
2024/02/19 11:54:15;;;;;;;;;0.00;0.00;;;;;;;;5078380;27;45514;-70
2024/02/19 11:56:44;;;;;;;;;4.75;1.25;;;;;;;;5077554;27;45534;-70
2024/02/19 11:59:10;;;;;;;;;4.00;3.00;;;;;;;;5078856;27;45751;-70
2024/02/19 12:01:35;;;;;;;;;1.75;1.25;;;;;;;;5077736;27;45439;-70
2024/02/19 12:04:01;;;;;;;;;1.00;1.00;;;;;;;;5078500;27;45417;-70
2024/02/19 12:06:27;;;;;;;;;1.25;1.25;;;;;;;;5085195;27;45700;-70
2024/02/19 12:08:52;;;;;;;;;1.00;1.00;;;;;;;;5077357;27;47866;-70
2024/02/19 12:11:17;;;;;;;;;1.00;1.00;;;;;;;;5069348;27;45401;-70
2024/02/19 12:13:42;;;;;;;;;1.00;1.00;;;;;;;;5076162;27;45380;-70
2024/02/19 12:16:08;;;;;;;;;0.33;0.33;;;;;;;;5078731;28;45540;-70
2024/02/19 12:18:33;;;;;;;;;3.00;2.00;;;;;;;;5077291;28;47323;-70
2024/02/19 12:20:59;;;;;;;;;1.00;1.00;;;;;;;;5078663;27;45228;-70
2024/02/19 12:23:24;;;;;;;;;1.00;1.00;;;;;;;;5078175;27;45480;-70
2024/02/19 12:25:50;;;;;;;;;0.00;0.00;;;;;;;;5072802;27;45441;-70
2024/02/19 12:28:15;;;;;;;;;0.00;0.00;;;;;;;;5072404;27;45436;-70
2024/02/19 12:30:40;;;;;;;;;1.00;1.00;;;;;;;;5072028;27;45326;-70
2024/02/19 12:33:06;;;;;;;;;1.50;1.50;;;;;;;;5080400;27;45528;-70
2024/02/19 12:35:32;;;;;;;;;0.25;0.25;;;;;;;;5080741;27;45441;-70
2024/02/19 12:37:57;;;;;;;;;1.00;0.00;;;;;;;;5090942;27;46346;-70
2024/02/19 12:40:22;;;;;;;;;1.00;1.00;;;;;;;;5080504;27;45428;-70
2024/02/19 12:42:47;;;;;;;;;1.00;1.00;;;;;;;;5079685;27;45297;-70
2024/02/19 12:45:13;;;;;;;;;3.75;1.00;;;;;;;;5081655;27;45580;-70
2024/02/19 12:47:38;;;;;;;;;0.75;0.75;;;;;;;;5060281;28;47290;-70
2024/02/19 12:50:04;;;;;;;;;5.00;1.00;;;;;;;;5072538;28;45357;-70
2024/02/19 12:52:29;;;;;;;;;2.00;1.00;;;;;;;;5079734;27;45418;-70
2024/02/19 12:54:55;;;;;;;;;3.00;1.00;;;;;;;;5081733;27;45411;-70
2024/02/19 12:57:21;;;;;;;;;3.25;1.50;;;;;;;;5074682;27;46347;-70
2024/02/19 12:59:46;;;;;;;;;0.50;0.50;;;;;;;;5081356;27;45238;-70
2024/02/19 13:02:14;;;;;;;;;1.50;1.25;;;;;;;;5079811;27;45742;-70
2024/02/19 13:04:40;;;;;;;;;2.50;2.50;;;;;;;;5081979;27;45393;-70
2024/02/19 13:07:05;;;;;;;;;0.50;0.50;;;;;;;;5079090;27;48087;-70
2024/02/19 13:09:30;;;;;;;;;2.00;1.25;;;;;;;;5080042;27;45341;-70
2024/02/19 13:11:56;;;;;;;;;1.00;1.00;;;;;;;;5072513;27;45424;-70
2024/02/19 13:14:24;;;;;;;;;3.25;1.25;;;;;;;;5081112;27;45535;-70
2024/02/19 13:16:49;;;;;;;;;1.00;1.00;;;;;;;;5079687;28;47443;-70
2024/02/19 13:19:17;;;;;;;;;2.00;1.00;;;;;;;;5079948;27;46113;-70
2024/02/19 13:21:42;;;;;;;;;5.25;2.00;;;;;;;;5080880;27;45368;-70
2024/02/19 13:24:07;;;;;;;;;3.00;1.33;;;;;;;;5075896;27;45512;-70
2024/02/19 13:26:33;;;;;;;;;4.00;2.00;;;;;;;;5082868;27;45223;-70
2024/02/19 13:28:58;;;;;;;;;1.00;1.00;;;;;;;;5084620;27;45661;-70
2024/02/19 13:31:24;;;;;;;;;3.00;1.00;;;;;;;;5080756;27;45526;-70
2024/02/19 13:33:49;;;;;;;;;3.00;2.00;;;;;;;;5078706;27;45344;-71
2024/02/19 13:36:16;;;;;;;;;4.33;2.00;;;;;;;;5078163;27;45498;-71
2024/02/19 13:38:41;;;;;;;;;3.00;2.00;;;;;;;;5079583;27;45442;-71
2024/02/19 13:41:09;;;;;;;;;2.00;1.00;;;;;;;;5080855;27;45407;-71
2024/02/19 13:43:35;;;;;;;;;3.50;2.25;;;;;;;;5083822;27;45499;-70
2024/02/19 13:46:06;;;;;;;;;3.25;1.00;;;;;;;;5073820;27;46184;-71
2024/02/19 13:48:32;;;;;;;;;4.25;3.50;;;;;;;;5075103;27;45496;-71
2024/02/19 13:50:57;;;;;;;;;3.75;1.50;;;;;;;;5079200;27;45594;-70
2024/02/19 13:53:25;;;;;;;;;3.25;1.00;;;;;;;;5078936;27;45724;-71
2024/02/19 13:55:50;;;;;;;;;6.75;1.75;;;;;;;;5079545;27;46524;-71
2024/02/19 13:58:16;;;;;;;;;2.25;1.00;;;;;;;;5082659;27;45455;-71
2024/02/19 14:00:41;;;;;;;;;3.00;2.50;;;;;;;;5082505;27;45377;-72
2024/02/19 14:03:08;;;;;;;;;1.00;1.00;;;;;;;;5078164;27;45556;-70
2024/02/19 14:05:34;;;;;;;;;1.50;1.00;;;;;;;;5079764;27;45583;-71
2024/02/19 14:08:00;;;;;;;;;2.00;1.00;;;;;;;;5078789;27;45277;-71
2024/02/19 14:10:26;;;;;;;;;3.25;0.75;;;;;;;;5086489;27;45763;-71
2024/02/19 14:12:51;;;;;;;;;3.25;1.00;;;;;;;;5088126;27;45326;-70
2024/02/19 14:15:16;;;;;;;;;6.00;2.00;;;;;;;;5093835;27;46692;-71
2024/02/19 14:17:41;;;;;;;;;2.00;2.00;;;;;;;;5089612;27;45470;-71
2024/02/19 14:20:07;;;;;;;;;2.00;2.00;;;;;;;;5098078;27;45350;-70
2024/02/19 14:22:33;;;;;;;;;3.50;2.00;;;;;;;;5083817;27;45647;-70
2024/02/19 14:24:58;;;;;;;;;1.00;1.00;;;;;;;;5081849;27;48735;-71
2024/02/19 14:27:23;;;;;;;;;1.00;1.00;;;;;;;;5097468;27;45483;-70
2024/02/19 14:29:48;;;;;;;;;1.25;1.25;;;;;;;;5078564;27;46360;-70